createdAt,value
2023-01-30T00:01:02.249Z,18.83
2023-01-30T00:03:28.939Z,17.67
2023-01-30T00:05:55.638Z,17.92
2023-01-30T00:08:22.379Z,12.73
2023-01-30T00:10:49.004Z,16.05
2023-01-30T00:13:15.771Z,14.95
2023-01-30T00:15:42.501Z,12.98
2023-01-30T00:18:09.288Z,13.38
2023-01-30T00:20:36.039Z,13.40
2023-01-30T00:23:02.675Z,8.75
2023-01-30T00:25:29.687Z,18.35
2023-01-30T00:27:56.708Z,13.82
2023-01-30T00:30:23.420Z,12.27
2023-01-30T00:32:54.761Z,11.02
2023-01-30T00:35:21.751Z,15.95
2023-01-30T00:37:48.423Z,12.30
2023-01-30T00:40:15.105Z,8.45
2023-01-30T00:43:00.158Z,12.80
2023-01-30T00:45:45.727Z,15.20
2023-01-30T00:48:12.871Z,11.82
2023-01-30T00:50:42.549Z,8.13
2023-01-30T00:53:10.991Z,9.60
2023-01-30T00:55:37.779Z,12.18
2023-01-30T00:58:04.481Z,15.10
2023-01-30T01:00:31.238Z,7.00
2023-01-30T01:02:58.001Z,9.20
2023-01-30T01:05:24.736Z,14.43
2023-01-30T01:07:51.400Z,16.88
2023-01-30T01:10:18.260Z,11.02
2023-01-30T01:12:48.982Z,8.15
2023-01-30T01:15:15.826Z,14.55
2023-01-30T01:17:42.686Z,13.32
2023-01-30T01:20:10.169Z,6.72
2023-01-30T01:22:36.865Z,16.45
2023-01-30T01:25:03.783Z,12.35
2023-01-30T01:27:30.408Z,12.80
2023-01-30T01:29:57.028Z,13.95
2023-01-30T01:32:23.768Z,14.15
2023-01-30T01:34:50.370Z,12.77
2023-01-30T01:37:17.031Z,15.82
2023-01-30T01:40:02.442Z,12.50
2023-01-30T01:42:34.519Z,12.73
2023-01-30T01:45:13.193Z,14.40
2023-01-30T01:47:41.822Z,7.35
2023-01-30T01:50:19.051Z,13.35
2023-01-30T01:52:45.792Z,14.93
2023-01-30T01:55:12.486Z,13.75
2023-01-30T01:57:44.361Z,11.60
2023-01-30T02:00:15.699Z,12.50
2023-01-30T02:02:44.150Z,13.73
2023-01-30T02:05:12.787Z,15.23
2023-01-30T02:07:43.671Z,14.75
2023-01-30T02:10:17.925Z,13.48
2023-01-30T02:12:44.532Z,15.57
2023-01-30T02:15:11.433Z,15.60
2023-01-30T02:17:38.135Z,12.93
2023-01-30T02:20:11.820Z,8.80
2023-01-30T02:25:52.034Z,13.93
2023-01-30T02:28:18.610Z,17.98
2023-01-30T02:31:10.650Z,11.52
2023-01-30T02:33:43.590Z,13.43
2023-01-30T02:36:26.932Z,11.15
2023-01-30T02:39:07.273Z,11.35
2023-01-30T02:41:48.549Z,12.50
2023-01-30T02:44:27.972Z,10.23
2023-01-30T02:47:05.295Z,12.63
2023-01-30T02:49:38.511Z,14.32
2023-01-30T02:52:05.298Z,14.88
2023-01-30T02:54:32.139Z,9.75
2023-01-30T02:56:59.025Z,12.63
2023-01-30T02:59:25.595Z,15.27
2023-01-30T03:02:13.912Z,13.10
2023-01-30T03:04:58.577Z,20.08
2023-01-30T03:07:46.587Z,13.75
2023-01-30T03:10:31.636Z,13.52
2023-01-30T03:13:16.548Z,12.05
2023-01-30T03:16:28.089Z,13.13
2023-01-30T03:18:55.081Z,11.95
2023-01-30T03:21:21.715Z,10.10
2023-01-30T03:23:48.348Z,11.40
2023-01-30T03:26:19.465Z,11.15
2023-01-30T03:28:47.061Z,12.18
2023-01-30T03:31:13.755Z,14.23
2023-01-30T03:33:40.480Z,13.40
2023-01-30T03:36:07.321Z,12.60
2023-01-30T03:38:34.894Z,14.00
2023-01-30T03:41:02.257Z,12.80
2023-01-30T03:43:28.972Z,12.30
2023-01-30T03:45:55.677Z,12.40
2023-01-30T03:48:22.335Z,9.32
2023-01-30T03:50:49.000Z,12.82
2023-01-30T03:53:15.732Z,10.63
2023-01-30T03:55:44.654Z,11.88
2023-01-30T03:58:11.360Z,16.92
2023-01-30T04:00:38.003Z,15.18
2023-01-30T04:03:04.743Z,15.57
2023-01-30T04:05:31.432Z,15.68
2023-01-30T04:07:58.214Z,13.48
2023-01-30T04:10:25.607Z,12.13
2023-01-30T04:12:52.357Z,16.00
2023-01-30T04:15:19.308Z,19.15
2023-01-30T04:17:47.907Z,14.65
2023-01-30T04:20:14.711Z,17.55
2023-01-30T04:22:41.361Z,15.20
2023-01-30T04:25:08.413Z,18.48
2023-01-30T04:27:35.125Z,18.02
2023-01-30T04:30:01.798Z,19.35
2023-01-30T04:32:28.446Z,22.60
2023-01-30T04:34:55.069Z,15.27
2023-01-30T04:37:21.791Z,14.07
2023-01-30T04:39:48.464Z,15.57
2023-01-30T04:42:15.237Z,13.68
2023-01-30T04:44:41.844Z,12.80
2023-01-30T04:47:08.422Z,15.32
2023-01-30T04:49:35.192Z,15.93
2023-01-30T04:52:01.924Z,11.95
2023-01-30T04:54:28.644Z,18.60
2023-01-30T04:56:55.291Z,15.43
2023-01-30T04:59:21.958Z,15.40
2023-01-30T05:01:48.681Z,18.67
2023-01-30T05:04:15.301Z,19.17
2023-01-30T05:06:41.963Z,31.50
2023-01-30T05:09:08.810Z,16.02
2023-01-30T05:11:35.533Z,13.63
2023-01-30T05:14:02.216Z,18.30
2023-01-30T05:16:29.249Z,19.27
2023-01-30T05:18:55.891Z,19.88
2023-01-30T05:21:25.889Z,22.50
2023-01-30T05:23:55.299Z,19.25
2023-01-30T05:26:22.128Z,17.30
2023-01-30T05:28:55.457Z,15.63
2023-01-30T05:31:22.292Z,14.25
2023-01-30T05:33:49.547Z,20.88
2023-01-30T05:36:17.795Z,14.05
2023-01-30T05:38:44.691Z,22.63
2023-01-30T05:41:12.019Z,22.00
2023-01-30T05:43:38.682Z,15.68
2023-01-30T05:46:05.779Z,15.40
2023-01-30T05:48:32.944Z,15.27
2023-01-30T05:50:59.700Z,12.45
2023-01-30T05:53:31.932Z,13.43
2023-01-30T05:55:59.738Z,16.58
2023-01-30T05:58:26.982Z,14.65
2023-01-30T06:00:53.700Z,18.42
2023-01-30T06:03:20.510Z,21.90
2023-01-30T06:05:47.258Z,15.13
2023-01-30T06:08:14.006Z,19.35
2023-01-30T06:10:40.675Z,16.38
2023-01-30T06:13:07.348Z,17.63
2023-01-30T06:15:34.024Z,14.52
2023-01-30T06:18:00.713Z,23.80
2023-01-30T06:20:27.375Z,19.17
2023-01-30T06:22:54.040Z,17.42
2023-01-30T06:25:20.955Z,22.95
2023-01-30T06:27:48.857Z,23.08
2023-01-30T06:30:15.799Z,21.08
2023-01-30T06:32:42.890Z,13.80
2023-01-30T06:35:09.880Z,16.02
2023-01-30T06:37:36.534Z,22.33
2023-01-30T06:40:03.249Z,21.13
2023-01-30T06:42:29.907Z,13.15
2023-01-30T06:44:56.551Z,14.05
2023-01-30T06:47:23.444Z,16.17
2023-01-30T06:49:50.219Z,18.05
2023-01-30T06:52:17.016Z,17.85
2023-01-30T06:54:43.643Z,15.50
2023-01-30T06:57:10.307Z,24.52
2023-01-30T06:59:37.024Z,22.58
2023-01-30T07:02:03.730Z,24.15
2023-01-30T07:04:30.473Z,15.82
2023-01-30T07:06:57.291Z,17.70
2023-01-30T07:09:23.877Z,18.58
2023-01-30T07:11:51.054Z,17.50
2023-01-30T07:14:17.816Z,15.82
2023-01-30T07:16:44.462Z,15.45
2023-01-30T07:19:11.180Z,15.60
2023-01-30T07:21:37.866Z,15.75
2023-01-30T07:24:04.799Z,13.43
2023-01-30T07:26:31.571Z,18.60
2023-01-30T07:28:58.428Z,17.20
2023-01-30T07:31:25.147Z,17.48
2023-01-30T07:33:51.823Z,13.98
2023-01-30T07:36:18.573Z,13.93
2023-01-30T07:38:45.222Z,21.27
2023-01-30T07:41:11.947Z,13.32
2023-01-30T07:43:38.636Z,10.85
2023-01-30T07:46:05.532Z,17.27
2023-01-30T07:48:32.211Z,19.35
2023-01-30T07:50:58.920Z,29.10
2023-01-30T07:53:25.577Z,20.42
2023-01-30T07:55:52.350Z,18.02
2023-01-30T07:58:19.036Z,22.35
2023-01-30T08:00:45.708Z,24.40
2023-01-30T08:03:15.759Z,12.38
2023-01-30T08:05:42.669Z,14.25
2023-01-30T08:08:09.353Z,17.95
2023-01-30T08:10:35.991Z,16.08
2023-01-30T08:13:02.772Z,17.52
2023-01-30T08:15:31.580Z,39.20
2023-01-30T08:17:58.266Z,39.80
2023-01-30T08:20:25.364Z,33.72
2023-01-30T08:22:52.125Z,23.85
2023-01-30T08:25:18.865Z,16.75
2023-01-30T08:27:45.507Z,18.92
2023-01-30T08:30:12.838Z,17.33
2023-01-30T08:32:39.491Z,21.63
2023-01-30T08:35:06.616Z,20.92
2023-01-30T08:37:33.383Z,16.98
2023-01-30T08:40:00.140Z,22.48
2023-01-30T08:42:26.804Z,27.02
2023-01-30T08:44:53.463Z,17.88
2023-01-30T08:47:20.170Z,25.20
2023-01-30T08:49:46.787Z,19.08
2023-01-30T08:52:13.392Z,15.60
2023-01-30T08:54:40.011Z,18.38
2023-01-30T08:57:06.761Z,36.13
2023-01-30T08:59:33.470Z,15.93
2023-01-30T09:02:00.249Z,43.88
2023-01-30T09:04:29.085Z,28.40
2023-01-30T09:06:55.717Z,23.58
2023-01-30T09:09:22.336Z,21.38
2023-01-30T09:11:48.982Z,14.20
2023-01-30T09:14:19.660Z,20.40
2023-01-30T09:16:55.628Z,26.50
2023-01-30T09:19:26.660Z,11.10
2023-01-30T09:21:53.481Z,18.45
2023-01-30T09:24:20.893Z,19.02
2023-01-30T09:26:48.195Z,15.68
2023-01-30T09:29:15.036Z,15.23
2023-01-30T09:31:41.867Z,12.32
2023-01-30T09:34:08.578Z,16.40
2023-01-30T09:36:35.192Z,22.73
2023-01-30T09:39:01.901Z,16.08
2023-01-30T09:41:42.797Z,18.65
2023-01-30T09:44:40.601Z,16.80
2023-01-30T09:47:14.387Z,19.00
2023-01-30T09:52:24.604Z,20.33
2023-01-30T09:54:51.212Z,22.67
2023-01-30T09:57:20.727Z,22.08
2023-01-30T09:59:55.183Z,24.95
2023-01-30T10:02:29.027Z,20.63
2023-01-30T10:07:41.953Z,22.38
2023-01-30T10:10:11.312Z,17.58
2023-01-30T10:12:46.480Z,18.02
2023-01-30T10:15:31.856Z,20.33
2023-01-30T10:18:13.897Z,19.10
2023-01-30T10:21:09.342Z,15.55
2023-01-30T10:24:03.825Z,12.30
2023-01-30T10:26:31.373Z,21.48
2023-01-30T10:29:07.294Z,10.05
2023-01-30T10:31:56.876Z,16.80
2023-01-30T10:34:34.776Z,31.25
2023-01-30T10:37:24.932Z,19.63
2023-01-30T10:40:28.914Z,21.73
2023-01-30T10:43:16.794Z,18.30
2023-01-30T10:46:11.120Z,14.52
2023-01-30T10:51:32.725Z,7.75
2023-01-30T10:54:11.983Z,25.08
2023-01-30T10:56:56.774Z,13.80
2023-01-30T10:59:47.970Z,14.40
2023-01-30T11:02:34.032Z,15.73
2023-01-30T11:05:04.671Z,16.27
2023-01-30T11:07:32.151Z,12.65
2023-01-30T11:09:59.349Z,12.75
2023-01-30T11:12:26.149Z,7.10
2023-01-30T11:14:59.851Z,8.30
2023-01-30T11:20:02.746Z,6.07
2023-01-30T11:22:29.483Z,12.20
2023-01-30T11:25:25.587Z,20.08
2023-01-30T11:28:02.673Z,14.63
2023-01-30T11:30:30.717Z,15.07
2023-01-30T11:33:12.600Z,16.27
2023-01-30T11:35:56.814Z,11.35
2023-01-30T11:38:25.534Z,16.35
2023-01-30T11:41:04.341Z,18.65
2023-01-30T11:43:32.216Z,29.75
2023-01-30T11:45:59.002Z,13.35
2023-01-30T11:48:34.025Z,14.38
2023-01-30T11:51:17.423Z,13.27
2023-01-30T11:53:48.664Z,11.02
2023-01-30T11:56:24.307Z,10.18
2023-01-30T11:58:58.898Z,12.93
2023-01-30T12:01:30.213Z,13.07
2023-01-30T12:03:57.632Z,13.57
2023-01-30T12:06:30.861Z,8.15
2023-01-30T12:08:58.011Z,14.77
2023-01-30T12:11:28.754Z,8.18
2023-01-30T12:13:58.023Z,15.65
2023-01-30T12:16:32.299Z,14.50
2023-01-30T12:19:38.459Z,13.55
2023-01-30T12:22:11.017Z,12.15
2023-01-30T12:24:59.249Z,12.15
2023-01-30T12:27:47.358Z,12.00
2023-01-30T12:30:35.111Z,11.98
2023-01-30T12:33:04.260Z,40.92
2023-01-30T12:36:06.717Z,109.15
2023-01-30T12:39:00.828Z,32.53
2023-01-30T12:41:36.732Z,38.28
2023-01-30T12:44:12.576Z,14.20
2023-01-30T12:46:57.580Z,31.50
2023-01-30T12:49:33.181Z,20.08
2023-01-30T12:52:27.523Z,14.25
2023-01-30T12:57:34.353Z,64.57
2023-01-30T13:00:16.597Z,14.63
2023-01-30T13:02:58.278Z,16.73
2023-01-30T13:05:42.503Z,18.33
2023-01-30T13:11:17.165Z,30.63
2023-01-30T13:13:56.026Z,14.98
2023-01-30T13:16:49.191Z,16.08
2023-01-30T13:19:23.096Z,44.58
2023-01-30T13:22:13.548Z,32.78
2023-01-30T13:24:58.767Z,17.92
2023-01-30T13:27:25.600Z,15.27
2023-01-30T13:29:52.352Z,23.75
2023-01-30T13:32:43.404Z,11.55
2023-01-30T13:35:20.960Z,17.50
2023-01-30T13:37:48.522Z,8.15
2023-01-30T13:40:45.367Z,16.08
2023-01-30T13:43:22.897Z,12.63
2023-01-30T13:45:50.420Z,11.70
2023-01-30T13:48:46.172Z,16.48
2023-01-30T13:51:12.714Z,27.17
2023-01-30T13:54:17.159Z,28.77
2023-01-30T13:57:00.946Z,18.02
2023-01-30T13:59:58.464Z,14.88
2023-01-30T14:02:25.466Z,20.48
2023-01-30T14:04:53.690Z,16.20
2023-01-30T14:07:34.087Z,5.40
2023-01-30T14:10:12.149Z,21.88
2023-01-30T14:12:49.802Z,38.38
2023-01-30T14:15:16.960Z,25.20
2023-01-30T14:18:05.981Z,43.97
2023-01-30T14:20:36.385Z,36.20
2023-01-30T14:23:06.538Z,29.92
2023-01-30T14:25:35.376Z,41.72
2023-01-30T14:28:02.652Z,18.65
2023-01-30T14:30:32.324Z,28.35
2023-01-30T14:33:00.285Z,23.70
2023-01-30T14:35:30.944Z,26.42
2023-01-30T14:38:06.629Z,27.02
2023-01-30T14:40:34.724Z,24.95
2023-01-30T14:43:42.774Z,31.15
2023-01-30T14:46:19.006Z,14.05
2023-01-30T14:48:45.775Z,28.55
2023-01-30T14:51:22.788Z,20.65
2023-01-30T14:53:54.335Z,18.00
2023-01-30T14:56:45.370Z,21.40
2023-01-30T14:59:34.022Z,20.85
2023-01-30T15:02:05.297Z,19.58
2023-01-30T15:04:47.776Z,25.80
2023-01-30T15:07:46.174Z,30.77
2023-01-30T15:10:52.831Z,27.35
2023-01-30T15:13:23.341Z,11.90
2023-01-30T15:16:19.110Z,21.17
2023-01-30T15:19:05.388Z,18.10
2023-01-30T15:22:04.087Z,14.82
2023-01-30T15:25:07.600Z,21.38
2023-01-30T15:28:19.089Z,20.33
2023-01-30T15:30:56.988Z,26.05
2023-01-30T15:33:30.871Z,31.45
2023-01-30T15:35:58.443Z,26.48
2023-01-30T15:38:26.607Z,35.30
2023-01-30T15:40:59.288Z,24.33
2023-01-30T15:43:53.703Z,18.05
2023-01-30T15:48:56.331Z,31.08
2023-01-30T15:51:27.322Z,43.60
2023-01-30T15:53:54.151Z,56.65
2023-01-30T15:56:23.125Z,44.70
2023-01-30T15:58:49.783Z,58.25
2023-01-30T16:01:22.597Z,56.67
2023-01-30T16:03:53.449Z,29.42
2023-01-30T16:06:30.667Z,38.80
2023-01-30T16:09:02.285Z,36.90
2023-01-30T16:11:38.924Z,45.65
2023-01-30T16:14:06.177Z,44.63
2023-01-30T16:16:32.901Z,30.98
2023-01-30T16:19:01.142Z,32.85
2023-01-30T16:21:34.255Z,41.88
2023-01-30T16:24:13.341Z,28.67
2023-01-30T16:26:42.331Z,24.20
2023-01-30T16:29:16.478Z,32.90
2023-01-30T16:31:46.525Z,39.17
2023-01-30T16:34:32.413Z,48.80
2023-01-30T16:37:19.952Z,34.72
2023-01-30T16:40:06.684Z,41.05
2023-01-30T16:42:33.288Z,32.20
2023-01-30T16:45:35.597Z,31.67
2023-01-30T16:48:17.691Z,30.40
2023-01-30T16:50:47.746Z,49.35
2023-01-30T16:53:24.817Z,41.38
2023-01-30T16:56:10.866Z,67.85
2023-01-30T16:58:37.543Z,71.97
2023-01-30T17:01:08.104Z,46.03
2023-01-30T17:03:37.025Z,45.78
2023-01-30T17:06:12.404Z,49.38
2023-01-30T17:08:55.719Z,51.72
2023-01-30T17:11:41.065Z,54.08
2023-01-30T17:14:24.537Z,71.10
2023-01-30T17:17:03.882Z,64.47
2023-01-30T17:19:30.850Z,91.07
2023-01-30T17:21:58.035Z,76.00
2023-01-30T17:24:25.217Z,55.22
2023-01-30T17:26:53.940Z,58.88
2023-01-30T17:29:41.269Z,62.03
2023-01-30T17:32:13.290Z,61.50
2023-01-30T17:34:41.303Z,63.90
2023-01-30T17:37:18.551Z,60.83
2023-01-30T17:39:45.410Z,56.22
2023-01-30T17:42:13.705Z,44.75
2023-01-30T17:44:40.828Z,88.70
2023-01-30T17:47:12.170Z,52.85
2023-01-30T17:49:38.951Z,51.38
2023-01-30T17:52:05.733Z,63.83
2023-01-30T17:54:32.308Z,76.30
2023-01-30T17:57:03.594Z,76.18
2023-01-30T17:59:31.195Z,72.97
2023-01-30T18:01:58.013Z,54.50
2023-01-30T18:04:24.697Z,29.90
2023-01-30T18:06:56.810Z,30.70
2023-01-30T18:09:24.342Z,21.17
2023-01-30T18:11:51.017Z,25.10
2023-01-30T18:14:17.687Z,28.75
2023-01-30T18:16:44.388Z,30.88
2023-01-30T18:19:15.656Z,23.67
2023-01-30T18:21:45.651Z,18.52
2023-01-30T18:24:13.142Z,19.45
2023-01-30T18:26:40.553Z,27.67
2023-01-30T18:29:09.695Z,28.38
2023-01-30T18:31:36.692Z,23.08
2023-01-30T18:34:03.414Z,27.65
2023-01-30T18:36:30.327Z,19.38
2023-01-30T18:38:57.034Z,19.10
2023-01-30T18:41:24.253Z,20.05
2023-01-30T18:43:58.201Z,20.35
2023-01-30T18:46:25.114Z,17.15
2023-01-30T18:48:51.848Z,18.17
2023-01-30T18:51:22.875Z,16.92
2023-01-30T18:53:51.084Z,15.10
2023-01-30T18:56:22.818Z,16.33
2023-01-30T18:58:56.462Z,17.80
2023-01-30T19:03:54.274Z,13.32
2023-01-30T19:06:20.976Z,15.82
2023-01-30T19:08:47.559Z,18.98
2023-01-30T19:11:33.932Z,47.58
2023-01-30T19:14:00.765Z,16.88
2023-01-30T19:16:28.894Z,25.95
2023-01-30T19:18:55.830Z,22.10
2023-01-30T19:21:22.548Z,17.83
2023-01-30T19:23:49.372Z,14.80
2023-01-30T19:26:16.624Z,15.32
2023-01-30T19:28:44.718Z,25.75
2023-01-30T19:31:13.974Z,23.90
2023-01-30T19:33:41.395Z,43.75
2023-01-30T19:36:15.786Z,22.77
2023-01-30T19:38:42.909Z,30.77
2023-01-30T19:41:13.687Z,35.15
2023-01-30T19:43:40.425Z,37.53
2023-01-30T19:46:07.232Z,17.23
2023-01-30T19:48:33.946Z,27.73
2023-01-30T19:51:05.502Z,19.25
2023-01-30T19:53:33.484Z,27.67
2023-01-30T19:56:00.189Z,17.73
2023-01-30T19:58:26.953Z,20.40
2023-01-30T20:00:53.746Z,22.52
2023-01-30T20:03:20.375Z,18.50
2023-01-30T20:05:47.003Z,20.20
2023-01-30T20:08:25.521Z,18.65
2023-01-30T20:11:02.002Z,17.58
2023-01-30T20:13:28.715Z,16.13
2023-01-30T20:15:56.618Z,20.05
2023-01-30T20:18:23.337Z,24.73
2023-01-30T20:20:49.932Z,20.67
2023-01-30T20:23:17.550Z,20.20
2023-01-30T20:25:46.533Z,13.68
2023-01-30T20:28:13.211Z,9.38
2023-01-30T20:30:40.291Z,17.55
2023-01-30T20:33:07.041Z,11.73
2023-01-30T20:35:34.749Z,11.25
2023-01-30T20:38:02.303Z,16.75
2023-01-30T20:40:28.937Z,9.43
2023-01-30T20:42:55.524Z,9.00
2023-01-30T20:45:22.222Z,9.13
2023-01-30T20:47:48.865Z,3.92
2023-01-30T20:50:15.855Z,5.60
2023-01-30T20:52:43.075Z,4.60
2023-01-30T20:55:09.845Z,5.07
2023-01-30T20:57:37.262Z,6.30
2023-01-30T21:00:05.600Z,4.72
2023-01-30T21:02:32.180Z,9.98
2023-01-30T21:04:58.992Z,8.45
2023-01-30T21:07:25.595Z,5.80
2023-01-30T21:09:52.264Z,10.25
2023-01-30T21:12:20.023Z,3.13
2023-01-30T21:14:46.631Z,4.82
2023-01-30T21:17:13.386Z,8.65
2023-01-30T21:19:41.731Z,4.13
2023-01-30T21:22:11.029Z,9.73
2023-01-30T21:24:39.464Z,6.68
2023-01-30T21:27:06.267Z,6.25
2023-01-30T21:29:33.111Z,7.55
2023-01-30T21:31:59.912Z,6.03
2023-01-30T21:34:26.773Z,4.93
2023-01-30T21:37:12.214Z,4.68
2023-01-30T21:39:57.697Z,5.90
2023-01-30T21:42:43.245Z,6.78
2023-01-30T21:45:09.978Z,6.47
2023-01-30T21:47:37.037Z,3.53
2023-01-30T21:50:04.180Z,3.75
2023-01-30T21:52:32.499Z,3.28
2023-01-30T21:54:59.116Z,3.78
2023-01-30T21:57:25.814Z,7.32
2023-01-30T21:59:52.587Z,3.80
2023-01-30T22:02:19.364Z,6.18
2023-01-30T22:04:45.995Z,3.33
2023-01-30T22:07:12.720Z,2.90
2023-01-30T22:09:39.712Z,6.22
2023-01-30T22:12:06.459Z,5.50
2023-01-30T22:14:35.327Z,4.32
2023-01-30T22:17:02.283Z,6.45
2023-01-30T22:19:35.234Z,6.43
2023-01-30T22:22:02.697Z,3.97
2023-01-30T22:24:29.384Z,6.93
2023-01-30T22:26:56.012Z,4.32
2023-01-30T22:29:22.718Z,5.85
2023-01-30T22:31:49.423Z,5.03
2023-01-30T22:34:16.120Z,4.53
2023-01-30T22:36:42.773Z,4.03
2023-01-30T22:39:09.667Z,4.93
2023-01-30T22:41:36.501Z,4.38
2023-01-30T22:44:04.245Z,4.53
2023-01-30T22:46:36.506Z,7.40
2023-01-30T22:49:04.265Z,6.28
2023-01-30T22:51:35.827Z,5.53
2023-01-30T22:54:04.765Z,7.97
2023-01-30T22:56:43.835Z,4.95
2023-01-30T22:59:10.639Z,4.28
2023-01-30T23:01:41.916Z,5.60
2023-01-30T23:04:13.712Z,5.47
2023-01-30T23:06:40.681Z,5.25
2023-01-30T23:09:08.317Z,3.28
2023-01-30T23:11:37.292Z,9.65
2023-01-30T23:14:14.873Z,8.43
2023-01-30T23:16:42.976Z,7.75
2023-01-30T23:19:10.119Z,7.18
2023-01-30T23:21:41.758Z,8.18
2023-01-30T23:24:18.856Z,8.60
2023-01-30T23:26:47.251Z,7.00
2023-01-30T23:29:15.836Z,10.45
2023-01-30T23:31:43.065Z,5.80
2023-01-30T23:34:17.037Z,6.63
2023-01-30T23:36:43.696Z,14.20
2023-01-30T23:39:11.921Z,9.35
2023-01-30T23:41:38.873Z,10.98
2023-01-30T23:44:05.698Z,7.85
2023-01-30T23:46:36.795Z,29.52
2023-01-30T23:49:05.250Z,16.20
2023-01-30T23:51:32.645Z,8.52
2023-01-30T23:53:59.401Z,2.67
2023-01-30T23:56:27.490Z,7.50
2023-01-30T23:58:54.128Z,8.23
